createdAt,value
2022-08-26T00:08:39.045Z,23.63
2022-08-26T00:18:44.537Z,23.53
2022-08-26T00:28:47.605Z,23.45
2022-08-26T00:38:51.279Z,23.36
2022-08-26T00:49:03.429Z,23.30
2022-08-26T00:59:11.417Z,23.15
2022-08-26T01:09:14.473Z,23.07
2022-08-26T01:19:31.870Z,22.89
2022-08-26T01:29:38.163Z,22.80
2022-08-26T01:39:43.421Z,22.67
2022-08-26T01:49:51.511Z,22.47
2022-08-26T02:00:01.728Z,22.42
2022-08-26T02:10:15.200Z,22.28
2022-08-26T02:20:20.493Z,22.17
2022-08-26T02:30:29.723Z,22.09
2022-08-26T02:40:36.694Z,22.03
2022-08-26T02:50:40.794Z,21.95
2022-08-26T03:00:53.059Z,21.92
2022-08-26T03:10:56.887Z,21.79
2022-08-26T03:21:06.762Z,21.69
2022-08-26T03:31:09.755Z,21.51
2022-08-26T03:41:14.037Z,21.39
2022-08-26T03:51:19.854Z,21.22
2022-08-26T04:01:23.393Z,21.20
2022-08-26T04:11:34.078Z,21.09
2022-08-26T04:21:38.682Z,21.05
2022-08-26T04:31:41.840Z,21.03
2022-08-26T04:41:44.864Z,21.09
2022-08-26T04:51:49.248Z,21.32
2022-08-26T05:01:57.494Z,21.45
2022-08-26T05:12:01.062Z,22.05
2022-08-26T05:22:05.654Z,22.62
2022-08-26T05:32:08.843Z,23.22
2022-08-26T05:42:15.469Z,23.67
2022-08-26T05:52:19.314Z,24.14
2022-08-26T06:02:25.697Z,24.55
2022-08-26T06:12:30.252Z,24.87
2022-08-26T06:22:51.921Z,25.38
2022-08-26T06:32:55.181Z,25.54
2022-08-26T06:42:58.196Z,26.36
2022-08-26T06:53:01.495Z,26.70
2022-08-26T07:03:07.110Z,27.35
2022-08-26T07:13:16.447Z,27.47
2022-08-26T07:23:42.711Z,28.41
2022-08-26T10:51:27.009Z,34.88
2022-08-26T11:02:16.046Z,34.92
2022-08-26T11:12:49.152Z,34.70
2022-08-26T11:22:54.918Z,35.67
2022-08-26T11:32:59.861Z,35.70
2022-08-26T11:43:08.769Z,35.66
2022-08-26T11:53:19.211Z,35.27
2022-08-26T12:03:26.151Z,36.09
2022-08-26T12:13:29.348Z,36.70
2022-08-26T12:23:34.414Z,36.18
2022-08-26T12:33:39.695Z,35.53
2022-08-26T12:43:44.979Z,35.64
2022-08-26T12:53:48.080Z,35.37
2022-08-26T13:03:51.969Z,35.35
2022-08-26T13:14:10.662Z,34.86
2022-08-26T13:24:23.253Z,34.83
2022-08-26T13:34:27.232Z,35.13
2022-08-26T13:44:30.155Z,34.53
2022-08-26T13:54:33.524Z,34.20
2022-08-26T14:04:36.756Z,33.86
2022-08-26T14:14:39.802Z,33.52
2022-08-26T14:24:44.325Z,33.55
2022-08-26T14:34:47.335Z,33.23
2022-08-26T14:44:56.413Z,33.24
2022-08-26T14:54:59.617Z,32.91
2022-08-26T15:05:04.180Z,32.46
2022-08-26T15:15:09.076Z,32.34
2022-08-26T15:25:12.479Z,32.11
2022-08-26T15:35:15.571Z,32.13
2022-08-26T15:45:24.813Z,31.93
2022-08-26T15:55:29.749Z,31.70
2022-08-26T16:05:37.196Z,31.49
2022-08-26T16:15:40.459Z,31.22
2022-08-26T16:25:45.002Z,30.98
2022-08-26T16:35:48.229Z,30.87
2022-08-26T16:45:52.551Z,30.61
2022-08-26T16:55:55.990Z,30.15
2022-08-26T17:05:59.352Z,29.69
2022-08-26T17:16:04.260Z,28.99
2022-08-26T17:26:08.214Z,28.48
2022-08-26T17:36:11.361Z,27.70
2022-08-26T17:46:14.430Z,27.10
2022-08-26T17:56:20.731Z,26.76
2022-08-26T18:06:26.149Z,26.47
2022-08-26T18:16:31.716Z,26.03
2022-08-26T18:26:38.903Z,25.70
2022-08-26T18:36:43.042Z,25.65
2022-08-26T18:46:46.868Z,25.54
2022-08-26T18:56:49.877Z,25.00
2022-08-26T19:06:53.327Z,24.63
2022-08-26T19:16:56.428Z,24.65
2022-08-26T19:27:01.594Z,24.59
2022-08-26T19:37:04.950Z,24.70
2022-08-26T19:47:10.636Z,24.66
2022-08-26T19:57:13.708Z,24.77
2022-08-26T20:07:18.899Z,24.96
2022-08-26T20:17:22.882Z,25.19
2022-08-26T20:27:34.385Z,25.11
2022-08-26T20:37:42.720Z,25.05
2022-08-26T20:47:46.196Z,24.93
2022-08-26T20:57:49.653Z,24.86
2022-08-26T21:07:53.347Z,24.63
2022-08-26T21:17:58.184Z,24.76
2022-08-26T21:28:01.403Z,24.67
2022-08-26T21:38:04.669Z,24.60
2022-08-26T21:48:08.038Z,24.43
2022-08-26T21:58:12.635Z,24.32
2022-08-26T22:08:15.854Z,24.17
2022-08-26T22:18:21.340Z,24.00
2022-08-26T22:28:25.159Z,23.78
2022-08-26T22:38:28.266Z,23.71
2022-08-26T22:48:31.320Z,23.57
2022-08-26T22:58:34.691Z,23.52
2022-08-26T23:08:39.305Z,23.44
2022-08-26T23:18:43.248Z,23.38
2022-08-26T23:28:46.281Z,23.28
2022-08-26T23:38:52.674Z,23.10
2022-08-26T23:48:56.045Z,23.07
2022-08-26T23:58:59.218Z,22.87
